createdAt,value
2022-11-24T00:00:47.038Z,0.09
2022-11-24T00:01:47.603Z,0.09
2022-11-24T00:02:48.121Z,0.09
2022-11-24T00:03:48.159Z,0.09
2022-11-24T00:04:49.031Z,0.09
2022-11-24T00:04:59.227Z,0.09
2022-11-24T00:05:58.240Z,0.09
2022-11-24T00:06:59.159Z,0.09
2022-11-24T00:07:59.759Z,0.09
2022-11-24T00:09:00.149Z,0.09
2022-11-24T00:10:00.823Z,0.09
2022-11-24T00:11:01.176Z,0.09
2022-11-24T00:12:01.544Z,0.09
2022-11-24T00:13:02.058Z,0.09
2022-11-24T00:14:02.404Z,0.09
2022-11-24T00:15:04.073Z,0.09
2022-11-24T00:16:03.916Z,0.09
2022-11-24T00:17:04.901Z,0.09
2022-11-24T00:18:05.313Z,0.09
2022-11-24T00:19:05.858Z,0.09
2022-11-24T00:20:06.360Z,0.09
2022-11-24T00:21:07.287Z,0.09
2022-11-24T00:22:09.260Z,0.09
2022-11-24T00:23:09.223Z,0.09
2022-11-24T00:24:09.675Z,0.09
2022-11-24T00:25:09.935Z,0.09
2022-11-24T00:26:10.158Z,0.09
2022-11-24T00:27:10.506Z,0.09
2022-11-24T00:28:11.022Z,0.09
2022-11-24T00:29:11.351Z,0.09
2022-11-24T00:30:11.518Z,0.09
2022-11-24T00:31:16.786Z,0.13
2022-11-24T00:32:12.220Z,0.09
2022-11-24T00:32:21.410Z,0.09
2022-11-24T00:33:22.366Z,0.09
2022-11-24T00:34:22.811Z,0.09
2022-11-24T00:35:22.848Z,0.09
2022-11-24T00:36:23.548Z,0.09
2022-11-24T00:37:23.815Z,0.09
2022-11-24T00:38:25.052Z,0.09
2022-11-24T00:39:24.405Z,0.09
2022-11-24T00:40:24.508Z,0.09
2022-11-24T00:41:24.939Z,0.09
2022-11-24T00:42:25.120Z,0.09
2022-11-24T00:43:26.155Z,0.09
2022-11-24T00:44:26.042Z,0.09
2022-11-24T00:45:26.046Z,0.09
2022-11-24T00:46:26.360Z,0.09
2022-11-24T00:47:26.349Z,0.09
2022-11-24T00:48:27.311Z,0.09
2022-11-24T00:49:27.766Z,0.09
2022-11-24T00:50:28.350Z,0.09
2022-11-24T00:51:29.093Z,0.09
2022-11-24T00:52:29.462Z,0.09
2022-11-24T00:53:31.454Z,0.09
2022-11-24T00:54:31.223Z,0.09
2022-11-24T00:55:31.328Z,0.09
2022-11-24T00:56:32.202Z,0.09
2022-11-24T00:57:32.709Z,0.09
2022-11-24T00:58:33.593Z,0.09
2022-11-24T00:59:34.780Z,0.09
2022-11-24T00:59:43.436Z,0.09
2022-11-24T01:00:43.925Z,0.09
2022-11-24T01:01:44.307Z,0.09
2022-11-24T01:02:44.680Z,0.09
2022-11-24T01:03:44.791Z,0.09
2022-11-24T01:04:45.701Z,0.09
2022-11-24T01:05:47.628Z,0.09
2022-11-24T01:06:46.815Z,0.09
2022-11-24T01:07:47.217Z,0.09
2022-11-24T01:08:47.940Z,0.09
2022-11-24T01:09:49.665Z,0.09
2022-11-24T01:10:49.861Z,0.09
2022-11-24T01:11:50.294Z,0.09
2022-11-24T01:12:49.976Z,0.09
2022-11-24T01:13:50.276Z,0.09
2022-11-24T01:14:51.240Z,0.09
2022-11-24T01:15:51.663Z,0.09
2022-11-24T01:16:51.736Z,0.09
2022-11-24T01:17:52.334Z,0.09
2022-11-24T01:18:52.613Z,0.09
2022-11-24T01:19:52.828Z,0.09
2022-11-24T01:20:53.356Z,0.13
2022-11-24T01:21:53.868Z,0.09
2022-11-24T01:22:55.094Z,0.13
2022-11-24T01:23:54.405Z,0.09
2022-11-24T01:24:55.703Z,0.09
2022-11-24T01:25:07.386Z,0.09
2022-11-24T01:26:09.133Z,0.09
2022-11-24T01:27:08.932Z,0.09
2022-11-24T01:28:09.268Z,0.09
2022-11-24T01:29:11.134Z,0.09
2022-11-24T01:30:10.700Z,0.09
2022-11-24T01:31:12.110Z,0.09
2022-11-24T01:32:11.306Z,0.09
2022-11-24T01:33:11.748Z,0.09
2022-11-24T01:34:11.957Z,0.09
2022-11-24T01:35:12.553Z,0.09
2022-11-24T01:36:13.974Z,0.09
2022-11-24T01:37:13.659Z,0.13
2022-11-24T01:38:15.221Z,0.09
2022-11-24T01:39:15.950Z,0.09
2022-11-24T01:40:16.287Z,0.09
2022-11-24T01:41:17.128Z,0.09
2022-11-24T01:42:18.020Z,0.09
2022-11-24T01:43:18.098Z,0.09
2022-11-24T01:44:18.145Z,0.13
2022-11-24T01:45:17.308Z,0.09
2022-11-24T01:45:25.954Z,0.13
2022-11-24T01:46:27.708Z,0.09
2022-11-24T01:47:27.471Z,0.09
2022-11-24T01:48:28.263Z,0.09
2022-11-24T01:49:28.515Z,0.13
2022-11-24T01:50:29.489Z,0.09
2022-11-24T01:51:29.745Z,0.09
2022-11-24T01:52:28.775Z,0.09
2022-11-24T01:53:30.385Z,0.09
2022-11-24T01:54:31.735Z,0.09
2022-11-24T01:55:30.693Z,0.09
2022-11-24T01:56:31.838Z,0.09
2022-11-24T01:57:31.022Z,0.09
2022-11-24T01:58:32.535Z,0.13
2022-11-24T01:59:33.293Z,0.13
2022-11-24T02:00:32.998Z,0.09
2022-11-24T02:01:34.025Z,0.09
2022-11-24T02:02:34.555Z,0.09
2022-11-24T02:03:35.263Z,0.09
2022-11-24T02:04:35.835Z,0.09
2022-11-24T02:05:36.577Z,0.09
2022-11-24T02:06:38.014Z,0.09
2022-11-24T02:07:38.873Z,0.09
2022-11-24T02:07:50.582Z,0.09
2022-11-24T02:08:50.775Z,0.09
2022-11-24T02:09:50.958Z,0.09
2022-11-24T02:10:50.973Z,0.09
2022-11-24T02:11:52.416Z,0.09
2022-11-24T02:12:51.874Z,0.09
2022-11-24T02:13:52.813Z,0.13
2022-11-24T02:14:53.356Z,0.09
2022-11-24T02:15:53.517Z,0.09
2022-11-24T02:16:54.133Z,0.09
2022-11-24T02:17:55.588Z,0.09
2022-11-24T02:18:54.849Z,0.09
2022-11-24T02:19:55.405Z,0.09
2022-11-24T02:20:57.046Z,0.09
2022-11-24T02:21:57.095Z,0.09
2022-11-24T02:22:57.653Z,0.09
2022-11-24T02:23:58.025Z,0.09
2022-11-24T02:24:58.156Z,0.09
2022-11-24T02:25:58.472Z,0.09
2022-11-24T02:26:58.264Z,0.09
2022-11-24T02:27:59.775Z,0.09
2022-11-24T02:29:00.112Z,0.09
2022-11-24T02:30:00.071Z,0.09
2022-11-24T02:31:00.383Z,0.09
2022-11-24T02:31:09.449Z,0.09
2022-11-24T02:32:09.623Z,0.09
2022-11-24T02:33:10.088Z,0.09
2022-11-24T02:34:10.260Z,0.09
2022-11-24T02:35:11.399Z,0.13
2022-11-24T02:36:11.104Z,0.09
2022-11-24T02:37:12.321Z,0.09
2022-11-24T02:38:13.362Z,0.09
2022-11-24T02:39:12.493Z,0.09
2022-11-24T02:40:13.841Z,0.13
2022-11-24T02:41:14.224Z,0.09
2022-11-24T02:42:15.137Z,0.09
2022-11-24T02:43:14.373Z,0.09
2022-11-24T02:44:16.060Z,0.09
2022-11-24T02:45:16.108Z,0.09
2022-11-24T02:46:16.138Z,0.09
2022-11-24T02:47:16.228Z,0.09
2022-11-24T02:48:17.509Z,0.09
2022-11-24T02:49:16.600Z,0.09
2022-11-24T02:50:17.867Z,0.13
2022-11-24T02:51:17.237Z,0.13
2022-11-24T02:52:18.556Z,0.09
2022-11-24T02:53:18.913Z,0.09
2022-11-24T02:53:27.532Z,0.09
2022-11-24T02:54:27.938Z,0.09
2022-11-24T02:55:29.179Z,0.09
2022-11-24T02:56:28.313Z,0.09
2022-11-24T02:57:29.447Z,0.09
2022-11-24T02:58:28.561Z,0.09
2022-11-24T02:59:29.804Z,0.09
2022-11-24T03:00:30.051Z,0.09
2022-11-24T03:01:29.840Z,0.09
2022-11-24T03:02:30.144Z,0.09
2022-11-24T03:03:30.282Z,0.09
2022-11-24T03:04:30.726Z,0.09
2022-11-24T03:05:30.993Z,0.09
2022-11-24T03:06:31.827Z,0.09
2022-11-24T03:07:33.572Z,0.09
2022-11-24T03:08:32.732Z,0.09
2022-11-24T03:09:34.348Z,0.09
2022-11-24T03:10:35.202Z,0.09
2022-11-24T03:11:35.493Z,0.09
2022-11-24T03:12:36.169Z,0.09
2022-11-24T03:13:35.361Z,0.09
2022-11-24T03:14:37.314Z,0.09
2022-11-24T03:15:36.832Z,0.09
2022-11-24T03:15:45.441Z,0.09
2022-11-24T03:16:45.858Z,0.09
2022-11-24T03:17:46.096Z,0.09
2022-11-24T03:18:46.748Z,0.09
2022-11-24T03:19:47.548Z,0.09
2022-11-24T03:20:48.372Z,0.09
2022-11-24T03:21:48.377Z,0.09
2022-11-24T03:22:49.958Z,0.09
2022-11-24T03:23:49.137Z,0.09
2022-11-24T03:24:49.508Z,0.09
2022-11-24T03:25:50.211Z,0.09
2022-11-24T03:26:50.888Z,0.09
2022-11-24T03:27:51.159Z,0.09
2022-11-24T03:28:51.729Z,0.09
2022-11-24T03:29:53.210Z,0.09
2022-11-24T03:30:53.632Z,0.09
2022-11-24T03:31:53.176Z,0.09
2022-11-24T03:32:54.859Z,0.09
2022-11-24T03:33:54.098Z,0.09
2022-11-24T03:34:55.048Z,0.09
2022-11-24T03:35:56.040Z,0.09
2022-11-24T03:36:57.204Z,0.09
2022-11-24T03:37:57.119Z,0.09
2022-11-24T03:38:58.586Z,0.09
2022-11-24T03:39:58.298Z,0.09
2022-11-24T03:40:59.891Z,0.09
2022-11-24T03:41:09.032Z,0.09
2022-11-24T03:42:10.043Z,0.09
2022-11-24T03:43:09.195Z,0.09
2022-11-24T03:44:09.683Z,0.09
2022-11-24T03:46:11.262Z,0.09
2022-11-24T03:47:12.165Z,0.09
2022-11-24T03:48:12.862Z,0.09
2022-11-24T03:49:13.381Z,0.09
2022-11-24T03:50:14.142Z,0.09
2022-11-24T03:51:14.447Z,0.09
2022-11-24T03:52:16.047Z,0.09
2022-11-24T03:53:15.676Z,0.09
2022-11-24T03:54:17.226Z,0.09
2022-11-24T03:55:17.816Z,0.09
2022-11-24T03:56:18.047Z,0.09
2022-11-24T03:57:18.673Z,0.09
2022-11-24T03:58:18.031Z,0.09
2022-11-24T03:59:18.369Z,0.09
2022-11-24T04:00:18.378Z,0.09
2022-11-24T04:01:18.966Z,0.09
2022-11-24T04:02:19.323Z,0.09
2022-11-24T04:03:19.639Z,0.09
2022-11-24T04:04:21.182Z,0.09
2022-11-24T04:05:20.584Z,0.09
2022-11-24T04:06:20.716Z,0.09
2022-11-24T04:06:29.331Z,0.09
2022-11-24T04:07:30.596Z,0.09
2022-11-24T04:08:30.002Z,0.09
2022-11-24T04:09:30.423Z,0.09
2022-11-24T04:10:32.250Z,0.09
2022-11-24T04:11:32.101Z,0.09
2022-11-24T04:12:32.867Z,0.09
2022-11-24T04:13:34.625Z,0.09
2022-11-24T04:14:34.395Z,0.09
2022-11-24T04:15:34.793Z,0.09
2022-11-24T04:16:36.645Z,0.09
2022-11-24T04:17:36.161Z,0.09
2022-11-24T04:18:36.367Z,0.09
2022-11-24T04:19:38.335Z,0.09
2022-11-24T04:20:37.354Z,0.09
2022-11-24T04:21:38.202Z,0.09
2022-11-24T04:22:40.194Z,0.09
2022-11-24T04:23:40.835Z,0.09
2022-11-24T04:24:40.769Z,0.09
2022-11-24T04:25:41.168Z,0.09
2022-11-24T04:26:41.498Z,0.09
2022-11-24T04:27:43.080Z,0.09
2022-11-24T04:28:43.519Z,0.09
2022-11-24T04:29:43.880Z,0.09
2022-11-24T04:30:43.138Z,0.09
2022-11-24T04:30:52.869Z,0.09
2022-11-24T04:31:53.575Z,0.09
2022-11-24T04:32:54.031Z,0.09
2022-11-24T04:33:54.786Z,0.09
2022-11-24T04:34:56.319Z,0.09
2022-11-24T04:35:55.734Z,0.09
2022-11-24T04:36:57.492Z,0.09
2022-11-24T04:37:56.919Z,0.09
2022-11-24T04:39:24.791Z,0.09
2022-11-24T04:39:57.364Z,0.09
2022-11-24T04:40:58.589Z,0.09
2022-11-24T04:41:58.962Z,0.09
2022-11-24T04:42:58.179Z,0.09
2022-11-24T04:43:59.539Z,0.09
2022-11-24T04:44:59.559Z,0.09
2022-11-24T04:45:59.800Z,0.09
2022-11-24T04:47:00.856Z,0.09
2022-11-24T04:47:59.979Z,0.09
2022-11-24T04:49:01.260Z,0.09
2022-11-24T04:50:01.565Z,0.09
2022-11-24T04:51:01.070Z,0.09
2022-11-24T04:52:02.603Z,0.09
2022-11-24T04:52:11.784Z,0.09
2022-11-24T04:53:13.251Z,0.09
2022-11-24T04:54:12.531Z,0.09
2022-11-24T04:55:13.488Z,0.09
2022-11-24T04:56:14.740Z,0.09
2022-11-24T04:57:13.974Z,0.09
2022-11-24T04:58:15.843Z,0.09
2022-11-24T04:59:15.036Z,0.09
2022-11-24T05:00:15.182Z,0.09
2022-11-24T05:01:16.991Z,0.09
2022-11-24T05:02:16.378Z,0.09
2022-11-24T05:03:17.843Z,0.09
2022-11-24T05:04:17.634Z,0.09
2022-11-24T05:05:18.346Z,0.09
2022-11-24T05:06:18.837Z,0.09
2022-11-24T05:07:20.754Z,0.09
2022-11-24T05:08:19.744Z,0.09
2022-11-24T05:09:21.447Z,0.09
2022-11-24T05:10:22.283Z,0.09
2022-11-24T05:11:23.071Z,0.09
2022-11-24T05:12:22.642Z,0.09
2022-11-24T05:13:24.204Z,0.13
2022-11-24T05:13:32.830Z,0.09
2022-11-24T05:14:34.160Z,0.09
2022-11-24T05:15:34.208Z,0.09
2022-11-24T05:16:34.898Z,0.09
2022-11-24T05:17:35.391Z,0.09
2022-11-24T05:18:35.488Z,0.09
2022-11-24T05:19:36.111Z,0.09
2022-11-24T05:20:36.507Z,0.09
2022-11-24T05:21:36.890Z,0.09
2022-11-24T05:22:37.661Z,0.09
2022-11-24T05:23:39.633Z,0.13
2022-11-24T05:24:40.559Z,0.09
2022-11-24T05:25:44.874Z,0.09
2022-11-24T05:26:40.636Z,0.09
2022-11-24T05:27:42.116Z,0.09
2022-11-24T05:28:41.816Z,0.09
2022-11-24T05:29:43.765Z,0.09
2022-11-24T05:30:43.955Z,0.09
2022-11-24T05:31:44.539Z,0.09
2022-11-24T05:32:43.935Z,0.13
2022-11-24T05:33:44.321Z,0.09
2022-11-24T05:34:44.523Z,0.09
2022-11-24T05:35:45.348Z,0.09
2022-11-24T05:36:45.457Z,0.09
2022-11-24T05:37:45.925Z,0.09
2022-11-24T05:38:47.766Z,0.09
2022-11-24T05:38:56.882Z,0.09
2022-11-24T05:39:58.120Z,0.09
2022-11-24T05:40:57.267Z,0.09
2022-11-24T05:41:57.967Z,0.09
2022-11-24T05:42:59.683Z,0.09
2022-11-24T05:43:59.434Z,0.09
2022-11-24T05:44:59.794Z,0.09
2022-11-24T05:46:00.389Z,0.09
2022-11-24T05:47:00.815Z,0.09
2022-11-24T05:48:01.464Z,0.09
2022-11-24T05:49:02.909Z,0.09
2022-11-24T05:50:03.353Z,0.09
2022-11-24T05:51:06.529Z,0.09
2022-11-24T05:52:03.369Z,0.09
2022-11-24T05:53:05.269Z,0.09
2022-11-24T05:54:06.225Z,0.09
2022-11-24T05:55:07.015Z,0.09
2022-11-24T05:56:07.373Z,0.09
2022-11-24T05:57:06.607Z,0.09
2022-11-24T05:58:08.395Z,0.09
2022-11-24T05:59:10.021Z,0.09
2022-11-24T06:00:08.230Z,0.09
2022-11-24T06:01:10.221Z,0.09
2022-11-24T06:01:18.910Z,0.09
2022-11-24T06:02:19.521Z,0.09
2022-11-24T06:03:19.680Z,0.09
2022-11-24T06:04:20.239Z,0.13
2022-11-24T06:05:22.186Z,0.09
2022-11-24T06:06:21.819Z,0.09
2022-11-24T06:07:22.557Z,0.09
2022-11-24T06:08:26.841Z,0.13
2022-11-24T06:09:23.604Z,0.13
2022-11-24T06:10:24.741Z,0.13
2022-11-24T06:11:25.512Z,0.13
2022-11-24T06:12:24.795Z,0.09
2022-11-24T06:13:25.100Z,0.13
2022-11-24T06:14:25.362Z,0.13
2022-11-24T06:15:26.851Z,0.13
2022-11-24T06:16:27.046Z,0.13
2022-11-24T06:17:26.094Z,0.13
2022-11-24T06:18:26.627Z,0.13
2022-11-24T06:19:28.097Z,0.13
2022-11-24T06:20:32.442Z,0.13
2022-11-24T06:21:27.680Z,0.13
2022-11-24T06:22:28.349Z,0.13
2022-11-24T06:23:30.362Z,0.13
2022-11-24T06:24:29.676Z,0.13
2022-11-24T06:24:38.342Z,0.13
2022-11-24T06:25:38.832Z,0.13
2022-11-24T06:26:39.241Z,0.13
2022-11-24T06:27:39.715Z,0.13
2022-11-24T06:28:41.185Z,0.13
2022-11-24T06:29:41.098Z,0.13
2022-11-24T06:30:41.540Z,0.13
2022-11-24T06:31:43.348Z,0.13
2022-11-24T06:32:48.944Z,0.13
2022-11-24T06:33:43.521Z,0.13
2022-11-24T06:34:44.673Z,0.13
2022-11-24T06:35:44.674Z,0.13
2022-11-24T06:37:05.119Z,0.13
2022-11-24T06:38:04.940Z,0.13
2022-11-24T06:39:06.535Z,0.13
2022-11-24T06:40:07.440Z,0.13
2022-11-24T06:41:07.783Z,0.13
2022-11-24T06:42:08.266Z,0.13
2022-11-24T06:43:08.492Z,0.13
2022-11-24T06:44:08.414Z,0.16
2022-11-24T06:45:09.704Z,0.13
2022-11-24T06:46:09.201Z,0.16
2022-11-24T06:47:09.356Z,0.13
2022-11-24T06:47:18.038Z,0.13
2022-11-24T06:48:18.643Z,0.13
2022-11-24T06:49:20.133Z,0.13
2022-11-24T06:50:19.459Z,0.13
2022-11-24T06:51:20.122Z,0.16
2022-11-24T06:52:20.863Z,0.13
2022-11-24T06:53:21.527Z,0.13
2022-11-24T06:54:23.377Z,0.13
2022-11-24T06:55:22.800Z,0.16
2022-11-24T06:56:24.243Z,0.16
2022-11-24T06:57:24.022Z,0.13
2022-11-24T06:58:25.662Z,0.16
2022-11-24T06:59:24.814Z,0.16
2022-11-24T07:00:26.075Z,0.16
2022-11-24T07:01:26.086Z,0.16
2022-11-24T07:02:26.256Z,0.16
2022-11-24T07:03:28.074Z,0.16
2022-11-24T07:04:27.313Z,0.16
2022-11-24T07:05:28.527Z,0.16
2022-11-24T07:06:28.990Z,0.16
2022-11-24T07:07:28.090Z,0.16
2022-11-24T07:08:28.501Z,0.16
2022-11-24T07:09:28.824Z,0.16
2022-11-24T07:10:30.486Z,0.16
2022-11-24T07:11:30.342Z,0.16
2022-11-24T07:11:38.955Z,0.16
2022-11-24T07:12:39.290Z,0.16
2022-11-24T07:13:39.912Z,0.23
2022-11-24T07:14:40.380Z,0.23
2022-11-24T07:15:41.626Z,0.23
2022-11-24T07:16:41.728Z,0.23
2022-11-24T07:17:42.096Z,0.23
2022-11-24T07:18:42.623Z,0.27
2022-11-24T07:19:42.831Z,0.27
2022-11-24T07:20:42.907Z,0.27
2022-11-24T07:21:44.836Z,0.27
2022-11-24T07:22:45.171Z,0.27
2022-11-24T07:23:44.576Z,0.27
2022-11-24T07:24:46.470Z,0.27
2022-11-24T07:25:47.398Z,0.27
2022-11-24T07:26:47.745Z,0.27
2022-11-24T07:27:47.692Z,0.27
2022-11-24T07:28:49.302Z,0.27
2022-11-24T07:29:48.794Z,0.27
2022-11-24T07:30:50.047Z,0.27
2022-11-24T07:31:49.228Z,0.27
2022-11-24T07:32:49.301Z,0.31
2022-11-24T07:33:50.741Z,0.31
2022-11-24T07:33:59.392Z,0.31
2022-11-24T07:34:59.661Z,0.31
2022-11-24T07:36:00.166Z,0.31
2022-11-24T07:37:01.085Z,0.31
2022-11-24T07:38:01.603Z,0.31
2022-11-24T07:39:02.178Z,0.31
2022-11-24T07:40:03.368Z,0.31
2022-11-24T07:41:03.178Z,0.31
2022-11-24T07:42:03.438Z,0.31
2022-11-24T07:43:05.228Z,0.31
2022-11-24T07:44:06.124Z,0.31
2022-11-24T07:45:06.614Z,0.31
2022-11-24T07:46:05.968Z,0.31
2022-11-24T07:47:06.433Z,0.31
2022-11-24T07:48:08.199Z,0.31
2022-11-24T07:49:08.506Z,0.31
2022-11-24T07:50:09.406Z,0.31
2022-11-24T07:51:09.058Z,0.31
2022-11-24T07:52:10.025Z,0.31
2022-11-24T07:53:10.072Z,0.27
2022-11-24T07:54:10.694Z,0.27
2022-11-24T07:55:12.322Z,0.27
2022-11-24T07:56:13.292Z,0.27
2022-11-24T07:56:21.974Z,0.27
2022-11-24T07:57:23.695Z,0.27
2022-11-24T07:58:27.612Z,0.31
2022-11-24T07:59:24.004Z,0.27
2022-11-24T08:00:26.025Z,0.27
2022-11-24T08:01:25.274Z,0.31
2022-11-24T08:02:25.411Z,0.31
2022-11-24T08:03:27.517Z,0.31
2022-11-24T08:04:27.369Z,0.31
2022-11-24T08:05:29.010Z,0.31
2022-11-24T08:06:35.402Z,0.31
2022-11-24T08:07:28.444Z,0.34
2022-11-24T08:08:29.183Z,0.34
2022-11-24T08:09:29.745Z,0.34
2022-11-24T08:10:31.501Z,0.34
2022-11-24T08:11:31.838Z,0.34
2022-11-24T08:12:31.013Z,0.31
2022-11-24T08:13:32.305Z,0.31
2022-11-24T08:14:32.449Z,0.34
2022-11-24T08:15:32.234Z,0.31
2022-11-24T08:16:33.045Z,0.31
2022-11-24T08:17:33.126Z,0.34
2022-11-24T08:18:34.772Z,0.34
2022-11-24T08:19:35.269Z,0.38
2022-11-24T08:19:43.892Z,0.38
2022-11-24T08:20:44.190Z,0.38
2022-11-24T08:21:44.962Z,0.38
2022-11-24T08:22:45.258Z,0.38
2022-11-24T08:23:45.771Z,0.38
2022-11-24T08:24:46.707Z,0.38
2022-11-24T08:25:47.014Z,0.38
2022-11-24T08:26:48.039Z,0.38
2022-11-24T08:27:47.460Z,0.38
2022-11-24T08:28:49.311Z,0.38
2022-11-24T08:29:50.166Z,0.34
2022-11-24T08:30:50.709Z,0.34
2022-11-24T08:31:50.587Z,0.34
2022-11-24T08:32:50.549Z,0.34
2022-11-24T08:33:52.515Z,0.38
2022-11-24T08:34:59.470Z,0.38
2022-11-24T08:35:52.523Z,0.41
2022-11-24T08:36:53.003Z,0.38
2022-11-24T08:37:54.055Z,0.38
2022-11-24T08:38:53.193Z,0.38
2022-11-24T08:39:53.589Z,0.34
2022-11-24T08:40:54.885Z,0.38
2022-11-24T08:41:54.232Z,0.34
2022-11-24T08:42:55.943Z,0.34
2022-11-24T08:43:04.605Z,0.34
2022-11-24T08:44:05.468Z,0.34
2022-11-24T08:45:20.046Z,0.38
2022-11-24T08:46:05.743Z,0.34
2022-11-24T08:47:06.331Z,0.34
2022-11-24T08:48:06.638Z,0.34
2022-11-24T08:49:08.506Z,0.38
2022-11-24T08:50:08.343Z,0.38
2022-11-24T08:51:09.183Z,0.34
2022-11-24T08:52:10.842Z,0.34
2022-11-24T08:53:11.308Z,0.34
2022-11-24T08:54:11.492Z,0.34
2022-11-24T08:55:10.975Z,0.34
2022-11-24T08:56:11.495Z,0.34
2022-11-24T08:57:17.212Z,0.34
2022-11-24T08:58:12.506Z,0.34
2022-11-24T08:59:13.843Z,0.38
2022-11-24T09:00:13.368Z,0.38
2022-11-24T09:01:14.241Z,0.38
2022-11-24T09:02:14.841Z,0.38
2022-11-24T09:03:15.536Z,0.38
2022-11-24T09:04:16.922Z,0.38
2022-11-24T09:05:43.613Z,0.38
2022-11-24T09:06:16.431Z,0.38
2022-11-24T09:07:16.538Z,0.38
2022-11-24T09:08:17.218Z,0.45
2022-11-24T09:08:25.881Z,0.38
2022-11-24T09:09:27.119Z,0.41
2022-11-24T09:10:26.965Z,0.41
2022-11-24T09:11:27.694Z,0.41
2022-11-24T09:12:29.281Z,0.41
2022-11-24T09:13:28.831Z,0.45
2022-11-24T09:14:29.584Z,0.48
2022-11-24T09:15:30.710Z,0.48
2022-11-24T09:16:29.878Z,0.48
2022-11-24T09:17:30.073Z,0.45
2022-11-24T09:18:31.052Z,0.48
2022-11-24T09:19:32.597Z,0.48
2022-11-24T09:20:31.957Z,0.45
2022-11-24T09:21:33.382Z,0.48
2022-11-24T09:22:33.860Z,0.45
2022-11-24T09:23:34.818Z,0.45
2022-11-24T09:24:34.451Z,0.41
2022-11-24T09:25:35.920Z,0.41
2022-11-24T09:26:35.132Z,0.27
2022-11-24T09:27:36.003Z,0.38
2022-11-24T09:28:36.064Z,0.38
2022-11-24T09:29:36.962Z,0.38
2022-11-24T09:30:37.705Z,0.38
2022-11-24T09:31:38.299Z,0.38
2022-11-24T09:31:47.477Z,0.38
2022-11-24T09:32:49.339Z,0.38
2022-11-24T09:33:48.479Z,0.38
2022-11-24T09:34:49.356Z,0.38
2022-11-24T09:35:51.299Z,0.38
2022-11-24T09:36:52.208Z,0.38
2022-11-24T09:37:53.757Z,0.38
2022-11-24T09:38:54.109Z,0.38
2022-11-24T09:39:53.523Z,0.38
2022-11-24T09:40:54.617Z,0.38
2022-11-24T09:41:55.267Z,0.38
2022-11-24T09:42:55.338Z,0.38
2022-11-24T09:43:55.148Z,0.38
2022-11-24T09:44:55.762Z,0.38
2022-11-24T09:46:05.333Z,0.38
2022-11-24T09:46:56.282Z,0.38
2022-11-24T09:47:56.658Z,0.38
2022-11-24T09:48:58.055Z,0.38
2022-11-24T09:49:58.786Z,0.38
2022-11-24T09:50:59.586Z,0.38
2022-11-24T09:51:59.444Z,0.38
2022-11-24T09:53:01.061Z,0.38
2022-11-24T09:53:10.250Z,0.38
2022-11-24T09:54:10.804Z,0.38
2022-11-24T09:55:11.476Z,0.38
2022-11-24T09:56:12.328Z,0.38
2022-11-24T09:57:13.564Z,0.41
2022-11-24T09:58:12.880Z,0.41
2022-11-24T09:59:13.727Z,0.41
2022-11-24T10:00:14.183Z,0.41
2022-11-24T10:01:14.491Z,0.38
2022-11-24T10:02:14.566Z,0.38
2022-11-24T10:03:16.067Z,0.38
2022-11-24T10:04:17.002Z,0.38
2022-11-24T10:05:16.365Z,0.38
2022-11-24T10:06:17.228Z,0.38
2022-11-24T10:07:19.363Z,0.38
2022-11-24T10:08:19.041Z,0.38
2022-11-24T10:09:19.952Z,0.38
2022-11-24T10:10:25.088Z,0.34
2022-11-24T10:11:21.487Z,0.38
2022-11-24T10:12:22.413Z,0.38
2022-11-24T10:13:23.294Z,0.38
2022-11-24T10:14:24.825Z,0.38
2022-11-24T10:15:25.567Z,0.38
2022-11-24T10:16:25.386Z,0.38
2022-11-24T10:16:34.034Z,0.38
2022-11-24T10:17:34.224Z,0.38
2022-11-24T10:18:34.912Z,0.38
2022-11-24T10:19:37.790Z,0.38
2022-11-24T10:20:35.542Z,0.38
2022-11-24T10:21:36.417Z,0.38
2022-11-24T10:22:36.951Z,0.38
2022-11-24T10:23:39.943Z,0.41
2022-11-24T10:24:37.518Z,0.38
2022-11-24T10:25:38.691Z,0.38
2022-11-24T10:26:38.112Z,0.41
2022-11-24T10:27:38.318Z,0.41
2022-11-24T10:28:38.311Z,0.41
2022-11-24T10:29:39.540Z,0.38
2022-11-24T10:30:40.585Z,0.38
2022-11-24T10:31:39.911Z,0.41
2022-11-24T10:32:40.018Z,0.38
2022-11-24T10:33:40.477Z,0.38
2022-11-24T10:34:41.272Z,0.38
2022-11-24T10:35:42.789Z,0.41
2022-11-24T10:36:42.333Z,0.38
2022-11-24T10:37:44.214Z,0.38
2022-11-24T10:38:43.347Z,0.38
2022-11-24T10:39:43.734Z,0.38
2022-11-24T10:40:57.316Z,0.38
2022-11-24T10:40:59.770Z,0.41
2022-11-24T10:41:52.975Z,0.38
2022-11-24T10:42:53.199Z,0.38
2022-11-24T10:43:54.075Z,0.38
2022-11-24T10:44:54.511Z,0.38
2022-11-24T10:45:55.554Z,0.38
2022-11-24T10:46:56.420Z,0.41
2022-11-24T10:47:57.011Z,0.41
2022-11-24T10:48:57.759Z,0.41
2022-11-24T10:49:58.594Z,0.41
2022-11-24T10:50:59.494Z,0.38
2022-11-24T10:51:59.556Z,0.38
2022-11-24T10:53:00.030Z,0.41
2022-11-24T10:54:00.246Z,0.38
2022-11-24T10:55:01.157Z,0.41
2022-11-24T10:56:02.024Z,0.41
2022-11-24T10:57:02.756Z,0.41
2022-11-24T10:58:02.949Z,0.41
2022-11-24T10:59:04.753Z,0.41
2022-11-24T11:00:05.295Z,0.41
2022-11-24T11:01:05.049Z,0.41
2022-11-24T11:02:06.203Z,0.41
2022-11-24T11:03:06.678Z,0.41
2022-11-24T11:04:07.163Z,0.45
2022-11-24T11:05:07.289Z,0.48
2022-11-24T11:06:07.322Z,0.48
2022-11-24T11:07:08.052Z,0.45
2022-11-24T11:08:08.223Z,0.48
2022-11-24T11:08:16.800Z,0.48
2022-11-24T11:09:16.825Z,0.55
2022-11-24T11:10:17.443Z,0.59
2022-11-24T11:11:18.362Z,0.59
2022-11-24T11:13:19.392Z,0.55
2022-11-24T11:14:21.027Z,0.59
2022-11-24T11:15:21.150Z,0.59
2022-11-24T11:16:20.519Z,0.48
2022-11-24T11:17:20.700Z,0.59
2022-11-24T11:18:22.296Z,0.59
2022-11-24T11:19:47.494Z,0.59
2022-11-24T11:20:22.845Z,0.59
2022-11-24T11:21:23.124Z,0.59
2022-11-24T11:22:23.817Z,0.48
2022-11-24T11:23:24.012Z,0.48
2022-11-24T11:24:24.401Z,0.55
2022-11-24T11:25:24.798Z,0.55
2022-11-24T11:26:27.662Z,0.48
2022-11-24T11:27:26.255Z,0.52
2022-11-24T11:28:26.920Z,0.66
2022-11-24T11:31:28.401Z,0.59
2022-11-24T11:34:38.574Z,0.48
2022-11-24T11:35:38.857Z,0.59
2022-11-24T11:36:39.240Z,0.48
2022-11-24T11:37:39.480Z,0.45
2022-11-24T11:38:40.033Z,0.45
2022-11-24T11:39:46.944Z,0.48
2022-11-24T11:40:41.355Z,0.59
2022-11-24T11:41:42.665Z,0.66
2022-11-24T11:43:42.520Z,0.66
2022-11-24T11:44:42.842Z,0.73
2022-11-24T11:45:43.945Z,0.73
2022-11-24T11:46:44.377Z,0.73
2022-11-24T11:47:44.638Z,0.66
2022-11-24T11:48:45.410Z,0.70
2022-11-24T11:49:46.342Z,0.41
2022-11-24T11:51:21.156Z,0.70
2022-11-24T11:51:47.408Z,0.70
2022-11-24T11:52:47.952Z,0.70
2022-11-24T11:53:48.189Z,0.77
2022-11-24T11:54:48.356Z,0.70
2022-11-24T11:55:50.222Z,0.66
2022-11-24T11:56:48.855Z,0.45
2022-11-24T11:57:49.181Z,0.73
2022-11-24T11:58:49.480Z,0.70
2022-11-24T11:58:58.197Z,0.66
2022-11-24T11:59:58.652Z,0.66
2022-11-24T12:00:58.781Z,0.66
2022-11-24T12:01:59.126Z,0.66
2022-11-24T12:02:59.704Z,0.41
2022-11-24T12:04:00.362Z,0.66
2022-11-24T12:05:00.592Z,0.55
2022-11-24T12:06:06.571Z,0.59
2022-11-24T12:07:40.553Z,0.77
2022-11-24T12:09:11.611Z,0.55
2022-11-24T12:09:41.029Z,0.66
2022-11-24T12:10:41.340Z,0.59
2022-11-24T12:11:41.502Z,0.55
2022-11-24T12:12:42.022Z,0.66
2022-11-24T12:13:42.967Z,0.48
2022-11-24T12:14:43.396Z,0.48
2022-11-24T12:15:43.674Z,0.41
2022-11-24T12:16:44.008Z,0.45
2022-11-24T12:17:44.378Z,0.45
2022-11-24T12:19:00.253Z,0.41
2022-11-24T12:19:45.161Z,0.41
2022-11-24T12:20:45.812Z,0.48
2022-11-24T12:21:47.453Z,0.48
2022-11-24T12:22:47.688Z,0.55
2022-11-24T12:23:47.444Z,0.41
2022-11-24T12:24:48.584Z,0.41
2022-11-24T12:25:49.719Z,0.41
2022-11-24T12:26:49.670Z,0.45
2022-11-24T12:27:50.411Z,0.45
2022-11-24T12:28:51.140Z,0.52
2022-11-24T12:29:52.363Z,0.48
2022-11-24T12:30:53.164Z,0.48
2022-11-24T12:31:52.249Z,0.55
2022-11-24T12:32:52.311Z,0.59
2022-11-24T12:33:00.957Z,0.59
2022-11-24T12:34:01.726Z,0.52
2022-11-24T12:35:02.348Z,0.52
2022-11-24T12:36:02.679Z,0.48
2022-11-24T12:37:04.483Z,0.45
2022-11-24T12:38:03.948Z,0.41
2022-11-24T12:39:05.269Z,0.41
2022-11-24T12:40:04.619Z,0.41
2022-11-24T12:41:39.891Z,0.41
2022-11-24T12:42:04.903Z,0.38
2022-11-24T12:43:05.868Z,0.38
2022-11-24T12:44:05.965Z,0.41
2022-11-24T12:45:06.125Z,0.38
2022-11-24T12:46:06.443Z,0.38
2022-11-24T12:47:06.808Z,0.38
2022-11-24T12:48:07.018Z,0.38
2022-11-24T12:49:07.432Z,0.38
2022-11-24T12:50:09.084Z,0.38
2022-11-24T12:51:08.662Z,0.38
2022-11-24T12:52:10.280Z,0.38
2022-11-24T12:53:09.695Z,0.38
2022-11-24T12:54:11.144Z,0.38
2022-11-24T12:55:11.454Z,0.41
2022-11-24T12:56:12.461Z,0.41
2022-11-24T12:57:11.630Z,0.41
2022-11-24T12:57:20.355Z,0.38
2022-11-24T12:58:20.469Z,0.38
2022-11-24T12:59:20.865Z,0.38
2022-11-24T13:00:21.862Z,0.38
2022-11-24T13:01:22.262Z,0.38
2022-11-24T13:02:22.985Z,0.38
2022-11-24T13:03:23.166Z,0.41
2022-11-24T13:04:23.875Z,0.41
2022-11-24T13:05:24.820Z,0.38
2022-11-24T13:06:26.570Z,0.38